Time;durP1;ratioP1;P1;durP2;ratioP2;P2;SDS_P1;SDS_P2;PMS_P1;PMS_P2;Temp;Humidity;BMP_temperature;BMP_pressure;BME280_temperature;BME280_humidity;BME280_pressure;Samples;Min_cycle;Max_cycle;Signal;HPM_P1;HPM_P2
2021/12/24 00:02:15;;;;;;;55.65;34.38;;;;;;;6.57;100.00;100333.72;5031266;28;20425;-69
2021/12/24 00:04:40;;;;;;;51.92;33.47;;;;;;;6.57;100.00;100330.22;5033821;28;20460;-69
2021/12/24 00:07:05;;;;;;;54.80;34.65;;;;;;;6.60;100.00;100334.34;5033464;28;20432;-70
2021/12/24 00:09:33;;;;;;;50.83;34.33;;;;;;;6.64;100.00;100332.88;5032106;28;20029;-70
2021/12/24 00:12:03;;;;;;;47.92;32.30;;;;;;;6.66;100.00;100325.44;5032565;28;20041;-70
2021/12/24 00:14:31;;;;;;;48.22;31.98;;;;;;;6.68;100.00;100328.75;5033533;28;20036;-69
2021/12/24 00:17:01;;;;;;;46.22;31.95;;;;;;;6.67;100.00;100337.84;5032077;28;20033;-70
2021/12/24 00:22:22;;;;;;;41.65;29.33;;;;;;;6.67;100.00;100336.00;5033199;28;20362;-70
2021/12/24 00:35:42;;;;;;;48.70;30.75;;;;;;;6.74;100.00;100326.03;5033106;28;20408;-70
2021/12/24 00:38:10;;;;;;;41.15;29.50;;;;;;;6.79;100.00;100320.00;5032576;28;20053;-70
2021/12/24 00:40:38;;;;;;;44.38;30.58;;;;;;;6.76;100.00;100314.22;5033166;28;20531;-70
2021/12/24 00:43:04;;;;;;;41.95;30.88;;;;;;;6.77;100.00;100310.50;5033066;28;20420;-70
2021/12/24 00:45:33;;;;;;;45.08;30.35;;;;;;;6.78;100.00;100306.78;5032814;28;20029;-70
2021/12/24 00:48:00;;;;;;;40.17;29.55;;;;;;;6.80;100.00;100300.16;5032350;28;20059;-70
2021/12/24 00:50:45;;;;;;;41.58;30.40;;;;;;;6.83;100.00;100302.41;5032610;28;20041;-70
2021/12/24 00:55:02;;;;;;;42.00;29.58;;;;;;;6.85;100.00;100302.19;5031302;28;20030;-69
2021/12/24 00:55:56;;;;;;;42.90;30.52;;;;;;;6.88;100.00;100307.16;5032781;28;20095;-70
2021/12/24 00:58:21;;;;;;;42.25;29.85;;;;;;;6.95;100.00;100293.69;5032863;28;20033;-70
2021/12/24 01:00:46;;;;;;;41.75;30.80;;;;;;;6.89;100.00;100298.84;5030323;28;20253;-70
2021/12/24 01:03:12;;;;;;;44.00;31.15;;;;;;;6.90;100.00;100300.53;5032340;28;20039;-70
2021/12/24 01:05:38;;;;;;;43.50;31.25;;;;;;;6.91;100.00;100299.50;5032767;28;20461;-70
2021/12/24 01:08:05;;;;;;;42.45;32.00;;;;;;;6.94;100.00;100300.09;5032249;28;20034;-70
2021/12/24 01:10:35;;;;;;;44.95;32.90;;;;;;;6.97;100.00;100299.66;5032249;28;20041;-69
2021/12/24 01:13:02;;;;;;;43.00;31.77;;;;;;;6.98;100.00;100298.63;5032378;28;20035;-70
2021/12/24 01:15:28;;;;;;;46.95;34.08;;;;;;;6.98;100.00;100302.13;5032631;28;20026;-69
2021/12/24 01:18:03;;;;;;;49.47;35.90;;;;;;;7.02;100.00;100291.75;5032862;28;20072;-70
2021/12/24 01:20:40;;;;;;;51.67;36.60;;;;;;;7.01;100.00;100293.63;5032141;28;20061;-70
2021/12/24 01:23:31;;;;;;;53.58;37.45;;;;;;;7.07;100.00;100290.06;5032301;28;20033;-70
2021/12/24 01:26:07;;;;;;;57.00;38.00;;;;;;;7.08;100.00;100293.59;5031425;28;20030;-70
2021/12/24 01:28:59;;;;;;;49.50;36.53;;;;;;;7.09;100.00;100293.38;5032616;28;20025;-70
2021/12/24 01:39:55;;;;;;;67.53;44.95;;;;;;;7.21;100.00;100285.44;5031907;28;20515;-70
2021/12/24 01:42:42;;;;;;;66.00;45.05;;;;;;;7.27;100.00;100289.13;5032262;28;20030;-70
2021/12/24 01:45:26;;;;;;;69.30;44.60;;;;;;;7.35;100.00;100288.88;5032242;28;20037;-70
2021/12/24 01:48:01;;;;;;;74.07;47.42;;;;;;;7.36;100.00;100292.41;5032332;28;20407;-69
2021/12/24 01:50:29;;;;;;;78.63;50.05;;;;;;;7.36;100.00;100290.53;5030671;28;20037;-70
2021/12/24 01:52:55;;;;;;;78.55;50.97;;;;;;;7.43;100.00;100290.50;5031883;28;20026;-70
2021/12/24 01:55:22;;;;;;;75.35;52.25;;;;;;;7.40;100.00;100293.63;5032019;28;20052;-70
2021/12/24 01:57:48;;;;;;;75.45;52.67;;;;;;;7.42;100.00;100291.53;5031853;28;20033;-70
2021/12/24 02:00:28;;;;;;;80.05;52.15;;;;;;;7.43;100.00;100293.19;5031636;28;20071;-69
2021/12/24 02:02:53;;;;;;;73.60;47.83;;;;;;;7.41;100.00;100282.63;5031051;28;20067;-70
2021/12/24 02:05:19;;;;;;;70.45;48.53;;;;;;;7.45;100.00;100291.09;5031938;28;20063;-70
2021/12/24 02:07:45;;;;;;;71.45;49.78;;;;;;;7.48;100.00;100290.66;5032151;28;20022;-70
2021/12/24 02:10:13;;;;;;;73.53;48.30;;;;;;;7.44;100.00;100284.03;5031325;28;20038;-70
2021/12/24 02:12:39;;;;;;;75.72;49.42;;;;;;;7.45;100.00;100281.13;5032075;28;20071;-70
2021/12/24 02:15:13;;;;;;;75.13;46.55;;;;;;;7.49;100.00;100286.94;5031877;28;20033;-69
2021/12/24 02:28:38;;;;;;;72.30;48.80;;;;;;;7.55;100.00;100291.44;5032020;28;20040;-70
2021/12/24 02:31:11;;;;;;;71.03;48.85;;;;;;;7.55;100.00;100290.59;5031497;28;20041;-70
2021/12/24 02:33:37;;;;;;;71.95;51.80;;;;;;;7.56;100.00;100286.88;5031883;28;20475;-70
2021/12/24 02:36:03;;;;;;;76.30;51.53;;;;;;;7.59;100.00;100287.25;5032977;28;20104;-70
2021/12/24 02:38:29;;;;;;;79.10;52.88;;;;;;;7.58;100.00;100285.59;5035542;28;20045;-70
2021/12/24 02:40:54;;;;;;;83.38;50.42;;;;;;;7.68;100.00;100278.91;5033883;28;20053;-70
2021/12/24 02:43:22;;;;;;;83.47;51.97;;;;;;;7.70;100.00;100276.81;5035170;28;20477;-70
2021/12/24 02:45:50;;;;;;;81.72;52.97;;;;;;;7.69;100.00;100275.19;5035301;28;20065;-70
2021/12/24 02:53:58;;;;;;;92.80;57.22;;;;;;;7.71;100.00;100273.06;5034739;28;20059;-70
2021/12/24 02:56:29;;;;;;;99.43;59.83;;;;;;;7.71;100.00;100257.72;5034237;28;20423;-69
2021/12/24 02:58:55;;;;;;;94.60;59.05;;;;;;;7.69;100.00;100272.47;5035094;28;20025;-70
2021/12/24 03:01:28;;;;;;;96.40;61.10;;;;;;;7.74;100.00;100272.63;5032232;28;20095;-70
2021/12/24 03:03:53;;;;;;;95.25;56.38;;;;;;;7.72;100.00;100266.66;5034984;28;20033;-70
2021/12/24 03:06:22;;;;;;;108.28;62.53;;;;;;;7.74;100.00;100270.75;5034744;28;20025;-70
2021/12/24 03:08:47;;;;;;;105.25;61.28;;;;;;;7.73;100.00;100273.66;5034867;28;20026;-70
2021/12/24 03:11:13;;;;;;;110.35;62.33;;;;;;;7.74;100.00;100261.84;5034389;28;20098;-69
2021/12/24 03:13:40;;;;;;;101.00;60.80;;;;;;;7.72;100.00;100261.28;5034854;28;20033;-70
2021/12/24 03:16:05;;;;;;;105.30;62.28;;;;;;;7.75;100.00;100268.91;5034292;28;20482;-70
2021/12/24 03:18:34;;;;;;;103.75;61.78;;;;;;;7.74;100.00;100264.56;5034410;28;20121;-70
2021/12/24 03:21:25;;;;;;;110.80;61.95;;;;;;;7.75;100.00;100274.28;5034668;28;20449;-70
2021/12/24 03:24:34;;;;;;;102.88;61.90;;;;;;;7.77;100.00;100266.81;5033772;28;20132;-69
2021/12/24 03:26:45;;;;;;;104.10;59.78;;;;;;;7.84;100.00;100272.16;5034129;28;20064;-69
2021/12/24 03:29:12;;;;;;;115.88;63.55;;;;;;;7.80;100.00;100274.44;5033714;28;20037;-71
2021/12/24 03:31:37;;;;;;;107.43;59.50;;;;;;;7.79;100.00;100281.72;5034178;28;20036;-72
2021/12/24 03:34:08;;;;;;;105.03;58.85;;;;;;;7.80;100.00;100280.69;5034507;28;20025;-71
2021/12/24 03:36:33;;;;;;;102.88;58.13;;;;;;;7.84;100.00;100285.63;5034109;28;20061;-70
2021/12/24 03:38:59;;;;;;;112.63;59.00;;;;;;;7.78;100.00;100288.13;5034427;28;20435;-69
2021/12/24 03:41:25;;;;;;;99.68;55.03;;;;;;;7.83;100.00;100287.47;5033808;28;20032;-69
2021/12/24 03:43:50;;;;;;;109.93;57.00;;;;;;;7.84;100.00;100274.84;5034009;28;20033;-70
2021/12/24 03:46:19;;;;;;;107.40;58.20;;;;;;;7.89;100.00;100288.47;5033754;28;20026;-69
2021/12/24 03:48:51;;;;;;;93.20;52.97;;;;;;;7.85;100.00;100290.78;5032935;28;20039;-69
2021/12/24 03:56:44;;;;;;;82.13;49.40;;;;;;;7.92;100.00;100296.09;5033780;28;20067;-69
2021/12/24 03:59:10;;;;;;;88.38;51.38;;;;;;;7.88;100.00;100287.66;5033712;28;20479;-69
2021/12/24 04:01:36;;;;;;;82.13;50.70;;;;;;;7.95;100.00;100284.88;5031547;28;20026;-69
2021/12/24 04:04:03;;;;;;;87.32;49.42;;;;;;;7.95;100.00;100287.56;5033830;28;20029;-69
2021/12/24 04:06:28;;;;;;;84.95;48.95;;;;;;;7.92;100.00;100286.13;5033334;28;20068;-69
2021/12/24 04:08:53;;;;;;;93.38;48.70;;;;;;;7.92;100.00;100278.06;5033227;28;20526;-70
2021/12/24 04:11:19;;;;;;;85.30;46.05;;;;;;;7.97;100.00;100283.63;5033809;28;20037;-69
2021/12/24 04:13:44;;;;;;;75.57;44.88;;;;;;;7.95;100.00;100285.69;5033594;28;20424;-69
2021/12/24 04:16:10;;;;;;;70.78;43.53;;;;;;;7.99;100.00;100280.69;5033101;28;20026;-70
2021/12/24 04:18:43;;;;;;;71.80;42.28;;;;;;;7.96;100.00;100286.53;5033137;28;20052;-69
2021/12/24 04:26:38;;;;;;;63.88;38.15;;;;;;;7.94;100.00;100280.53;5033167;28;20123;-69
2021/12/24 04:29:04;;;;;;;56.58;34.05;;;;;;;7.91;100.00;100276.44;5032996;28;20072;-69
2021/12/24 04:31:40;;;;;;;59.03;32.08;;;;;;;7.96;100.00;100287.34;5033111;28;20038;-69
2021/12/24 04:34:06;;;;;;;47.28;27.77;;;;;;;7.99;100.00;100286.91;5033209;28;20519;-69
2021/12/24 04:39:30;;;;;;;44.40;26.25;;;;;;;8.00;100.00;100287.72;5033231;28;20037;-70
2021/12/24 04:53:35;;;;;;;42.15;22.90;;;;;;;7.99;100.00;100281.53;5032883;28;20072;-70
2021/12/24 05:01:33;;;;;;;46.08;23.90;;;;;;;8.03;100.00;100275.69;5030646;28;20488;-70
2021/12/24 05:04:02;;;;;;;;;;;;;;;8.11;100.00;100278.09;5033635;28;20404;-70
2021/12/24 05:06:36;;;;;;;39.03;22.77;;;;;;;8.02;100.00;100280.25;5032272;28;20043;-69
2021/12/24 05:09:09;;;;;;;42.22;21.15;;;;;;;8.06;100.00;100281.47;5032721;28;20492;-69
2021/12/24 05:11:35;;;;;;;39.35;23.10;;;;;;;8.02;100.00;100284.81;5032511;28;20026;-70
2021/12/24 05:14:00;;;;;;;41.72;22.98;;;;;;;8.02;100.00;100284.81;5032628;28;20128;-69
2021/12/24 05:16:38;;;;;;;40.85;22.55;;;;;;;8.03;100.00;100283.78;5031843;28;20140;-69
2021/12/24 05:21:35;;;;;;;39.33;21.45;;;;;;;8.05;100.00;100287.91;5032312;28;20477;-69
2021/12/24 05:24:04;;;;;;;35.65;19.90;;;;;;;8.05;100.00;100292.47;5032572;28;20125;-69
2021/12/24 05:26:30;;;;;;;35.65;20.70;;;;;;;8.04;99.79;100306.97;5032089;28;20026;-70
2021/12/24 05:28:57;;;;;;;39.88;20.35;;;;;;;7.98;100.00;100300.59;5032551;28;20037;-69
2021/12/24 05:31:23;;;;;;;37.83;20.08;;;;;;;8.02;100.00;100306.34;5032232;28;20033;-71
2021/12/24 05:33:49;;;;;;;46.15;20.20;;;;;;;8.03;99.67;100302.63;5032417;28;20029;-70
2021/12/24 05:36:14;;;;;;;40.75;19.00;;;;;;;7.98;100.00;100297.91;5031858;28;20057;-70
2021/12/24 05:38:39;;;;;;;44.10;19.20;;;;;;;7.98;100.00;100301.41;5032114;28;20037;-70
2021/12/24 05:41:05;;;;;;;40.38;19.40;;;;;;;7.99;99.88;100303.06;5032207;28;20044;-70
2021/12/24 05:43:31;;;;;;;36.95;17.92;;;;;;;7.97;99.92;100309.72;5032153;28;20073;-70
2021/12/24 05:45:56;;;;;;;39.58;17.80;;;;;;;7.98;99.79;100303.28;5032421;28;20029;-70
2021/12/24 05:48:22;;;;;;;36.05;17.80;;;;;;;7.96;99.95;100306.22;5032031;28;20064;-70
2021/12/24 05:50:47;;;;;;;31.23;16.35;;;;;;;8.02;98.61;100314.44;5032381;28;20033;-70
2021/12/24 05:53:13;;;;;;;35.42;16.00;;;;;;;8.04;98.84;100312.38;5032228;28;20104;-70
2021/12/24 05:55:38;;;;;;;33.10;16.13;;;;;;;7.98;98.70;100317.59;5032180;28;20056;-70
2021/12/24 05:58:07;;;;;;;35.45;14.70;;;;;;;7.96;99.03;100311.59;5031552;28;20087;-70
2021/12/24 06:00:38;;;;;;;32.75;15.70;;;;;;;7.96;99.69;100319.69;5029724;28;20136;-70
2021/12/24 06:03:05;;;;;;;34.87;15.87;;;;;;;7.98;98.92;100322.16;5032231;28;20026;-70
2021/12/24 06:05:30;;;;;;;32.97;14.35;;;;;;;7.99;97.88;100318.44;5031962;28;20477;-70
2021/12/24 06:07:56;;;;;;;33.90;14.60;;;;;;;7.97;99.55;100321.34;5031658;28;20493;-70
2021/12/24 06:10:21;;;;;;;34.35;15.82;;;;;;;7.97;98.76;100321.34;5032387;28;20038;-70
2021/12/24 06:12:46;;;;;;;35.85;14.73;;;;;;;7.98;98.39;100316.78;5036135;28;20033;-71
2021/12/24 06:15:12;;;;;;;35.58;14.55;;;;;;;7.93;98.87;100311.22;5035889;28;20358;-71
2021/12/24 06:17:38;;;;;;;35.90;14.88;;;;;;;7.96;98.75;100314.28;5035368;28;20035;-70
2021/12/24 06:20:07;;;;;;;31.25;14.00;;;;;;;7.94;98.88;100315.56;5035792;28;20069;-71
2021/12/24 06:22:32;;;;;;;32.10;14.07;;;;;;;7.92;98.85;100315.78;5035556;28;20026;-70
2021/12/24 06:24:57;;;;;;;24.77;12.10;;;;;;;8.03;97.64;100326.88;5036057;28;20491;-70
2021/12/24 06:27:22;;;;;;;27.42;13.48;;;;;;;8.02;97.08;100314.44;5035199;28;20469;-70
2021/12/24 06:29:48;;;;;;;32.83;14.23;;;;;;;7.99;97.55;100313.03;5035188;28;20029;-70
2021/12/24 06:32:14;;;;;;;28.80;12.93;;;;;;;8.01;97.83;100304.72;5035345;28;20033;-70
2021/12/24 06:34:39;;;;;;;35.33;13.70;;;;;;;7.94;98.70;100302.09;5034007;28;20037;-70
2021/12/24 06:37:05;;;;;;;31.48;11.77;;;;;;;8.01;97.81;100315.50;5035138;28;20041;-70
2021/12/24 06:39:30;;;;;;;28.35;13.13;;;;;;;7.99;97.57;100302.25;5035304;28;20053;-71
2021/12/24 06:41:56;;;;;;;32.42;12.73;;;;;;;7.98;98.11;100312.19;5035383;28;20041;-70
2021/12/24 06:44:22;;;;;;;31.67;13.00;;;;;;;7.93;98.36;100309.34;5035202;28;20385;-70
2021/12/24 06:46:47;;;;;;;29.52;12.68;;;;;;;7.96;97.89;100311.59;5035191;28;20033;-70
2021/12/24 06:49:13;;;;;;;35.28;13.27;;;;;;;7.95;97.84;100322.59;5035247;28;20068;-70
2021/12/24 06:51:39;;;;;;;29.00;11.95;;;;;;;7.97;98.09;100324.03;5035040;28;20079;-70
2021/12/24 06:54:05;;;;;;;24.25;11.45;;;;;;;7.97;97.60;100315.97;5035005;28;20026;-70
2021/12/24 06:56:31;;;;;;;27.65;12.80;;;;;;;7.95;98.33;100317.22;5034670;28;20041;-70
2021/12/24 06:58:56;;;;;;;26.60;12.70;;;;;;;7.94;97.70;100315.56;5035154;28;20033;-70
2021/12/24 07:01:21;;;;;;;27.65;13.18;;;;;;;7.92;98.04;100315.78;5032217;28;20029;-70
2021/12/24 07:03:47;;;;;;;29.60;13.77;;;;;;;7.98;97.85;100319.47;5035114;28;20038;-70
2021/12/24 07:06:12;;;;;;;33.95;13.27;;;;;;;7.97;97.22;100313.25;5034926;28;20038;-70
2021/12/24 07:08:37;;;;;;;30.98;15.13;;;;;;;7.96;97.79;100314.28;5034443;28;20025;-71
2021/12/24 07:11:03;;;;;;;30.10;14.85;;;;;;;7.96;97.43;100318.88;5034581;28;20112;-70
2021/12/24 07:13:29;;;;;;;33.20;16.30;;;;;;;7.97;97.05;100312.41;5034768;28;20083;-69
2021/12/24 07:15:54;;;;;;;28.30;14.07;;;;;;;7.94;97.70;100304.78;5034802;28;20026;-70
2021/12/24 07:18:20;;;;;;;30.17;15.23;;;;;;;7.95;97.36;100296.47;5034023;28;20477;-70
2021/12/24 07:20:46;;;;;;;42.03;16.40;;;;;;;7.95;97.84;100307.25;5034684;28;20055;-70
2021/12/24 07:23:11;;;;;;;40.08;16.67;;;;;;;7.92;97.31;100307.69;5033060;28;20033;-69
2021/12/24 07:25:37;;;;;;;33.55;15.70;;;;;;;7.93;97.45;100312.03;5034430;28;20104;-69
2021/12/24 07:28:02;;;;;;;36.45;16.02;;;;;;;7.89;97.81;100313.53;5034363;28;20041;-70
2021/12/24 07:30:28;;;;;;;35.38;16.35;;;;;;;7.90;98.06;100317.06;5032999;28;20033;-70
2021/12/24 07:32:54;;;;;;;33.60;17.52;;;;;;;7.89;97.32;100318.09;5034402;28;20029;-70
2021/12/24 07:35:19;;;;;;;40.33;18.92;;;;;;;7.92;97.83;100312.25;5034441;28;20030;-69
2021/12/24 07:37:45;;;;;;;38.72;20.27;;;;;;;7.90;97.60;100312.47;5033909;28;20393;-69
2021/12/24 07:40:15;;;;;;;38.20;19.92;;;;;;;7.88;97.82;100317.28;5034495;28;20060;-70
2021/12/24 07:42:40;;;;;;;38.95;19.50;;;;;;;7.88;97.82;100325.38;5034199;28;20025;-72
2021/12/24 07:45:08;;;;;;;36.38;20.05;;;;;;;7.88;97.44;100327.22;5033674;28;20047;-70
2021/12/24 07:47:38;;;;;;;41.42;19.83;;;;;;;7.89;97.98;100324.28;5018559;28;20032;-72
2021/12/24 07:50:17;;;;;;;47.28;20.95;;;;;;;7.89;96.86;100334.25;5028911;28;20109;-72
2021/12/24 07:52:44;;;;;;;44.50;19.67;;;;;;;7.89;97.15;100334.25;5033357;28;20503;-72
2021/12/24 07:55:10;;;;;;;34.70;19.55;;;;;;;7.91;97.84;100333.00;5016099;28;20394;-74
2021/12/24 07:57:39;;;;;;;34.80;20.33;;;;;;;7.87;97.07;100321.00;5033663;28;20056;-76
2021/12/24 08:00:07;;;;;;;42.03;18.90;;;;;;;7.94;96.81;100315.56;5033622;28;20033;-75
2021/12/24 08:02:32;;;;;;;37.53;19.25;;;;;;;7.89;97.41;100315.41;5019705;28;20040;-77
2021/12/24 08:04:58;;;;;;;38.28;19.23;;;;;;;7.87;96.77;100314.81;5013609;28;20030;-72
2021/12/24 08:07:23;;;;;;;37.95;18.63;;;;;;;7.87;96.93;100312.13;5018271;28;20519;-76
2021/12/24 08:09:50;;;;;;;38.92;18.55;;;;;;;7.80;96.88;100309.47;5033473;28;20029;-76
2021/12/24 08:12:16;;;;;;;45.70;18.75;;;;;;;7.78;96.73;100308.88;5033365;28;20040;-77
2021/12/24 08:14:43;;;;;;;40.90;18.85;;;;;;;7.79;96.71;100310.53;5032264;28;20025;-77
2021/12/24 08:17:08;;;;;;;41.05;18.48;;;;;;;7.76;97.10;100319.00;5033714;28;20040;-81
2021/12/24 08:19:34;;;;;;;38.80;18.35;;;;;;;7.77;96.84;100317.97;5032148;28;20412;-75
2021/12/24 08:21:59;;;;;;;40.90;17.73;;;;;;;7.72;97.22;100313.25;5026916;28;20028;-73
2021/12/24 08:24:25;;;;;;;36.95;17.05;;;;;;;7.74;97.08;100321.13;5034049;28;20029;-76
2021/12/24 08:26:51;;;;;;;36.47;16.95;;;;;;;7.74;96.95;100323.81;5028019;28;20056;-81
2021/12/24 08:29:17;;;;;;;36.88;17.40;;;;;;;7.73;96.99;100327.53;5032470;28;20034;-75
2021/12/24 08:31:42;;;;;;;40.88;17.58;;;;;;;7.73;97.25;100324.84;5030849;28;20040;-75
2021/12/24 08:34:08;;;;;;;36.08;17.20;;;;;;;7.75;96.67;100320.91;5030792;28;20579;-77
2021/12/24 08:36:36;;;;;;;40.60;17.02;;;;;;;7.77;97.08;100309.91;5013778;28;20144;-77
2021/12/24 08:39:02;;;;;;;33.28;15.73;;;;;;;7.79;97.12;100314.03;5033338;28;20576;-79
2021/12/24 08:41:28;;;;;;;42.65;17.85;;;;;;;7.77;96.80;100304.50;5031716;28;20389;-76
2021/12/24 08:43:53;;;;;;;40.17;16.75;;;;;;;7.77;96.66;100304.50;5033298;28;20034;-81
2021/12/24 08:46:18;;;;;;;40.15;17.10;;;;;;;7.80;96.58;100307.59;5033100;28;20033;-74
2021/12/24 08:48:44;;;;;;;32.88;16.75;;;;;;;7.79;96.89;100307.84;5033386;28;20037;-74
2021/12/24 08:51:10;;;;;;;36.47;16.13;;;;;;;7.80;96.32;100309.47;5033045;28;20029;-80
2021/12/24 08:53:35;;;;;;;41.55;17.70;;;;;;;7.83;96.91;100308.19;5031357;28;20030;-79
2021/12/24 08:56:02;;;;;;;43.13;18.90;;;;;;;7.85;97.09;100306.94;5031294;28;20061;-75
2021/12/24 08:58:27;;;;;;;48.65;19.40;;;;;;;7.87;97.00;100298.66;5031158;28;20033;-76
2021/12/24 09:00:53;;;;;;;41.72;18.48;;;;;;;7.87;96.71;100309.41;5029213;28;20075;-77
2021/12/24 09:03:19;;;;;;;43.33;19.08;;;;;;;7.86;96.61;100307.75;5032856;28;20041;-79
2021/12/24 09:05:45;;;;;;;42.92;20.20;;;;;;;7.90;96.61;100309.78;5031313;28;20039;-80
2021/12/24 09:08:11;;;;;;;42.58;20.23;;;;;;;7.89;97.13;100302.75;5031167;28;20025;-79
2021/12/24 09:10:36;;;;;;;38.92;20.52;;;;;;;7.90;96.72;100308.97;5027781;28;20049;-79
2021/12/24 09:13:02;;;;;;;45.50;21.08;;;;;;;7.91;96.95;100311.44;5030472;28;20021;-80
2021/12/24 09:15:30;;;;;;;42.22;20.75;;;;;;;7.94;97.02;100294.00;5032257;28;20112;-78
2021/12/24 09:17:57;;;;;;;40.47;21.88;;;;;;;7.95;96.75;100298.34;5032872;28;20037;-79
2021/12/24 09:20:30;;;;;;;36.03;19.27;;;;;;;8.06;97.01;100299.50;5031579;28;20030;-80
2021/12/24 09:22:55;;;;;;;41.22;22.27;;;;;;;8.06;96.53;100299.50;5031284;28;20116;-79
2021/12/24 09:25:23;;;;;;;44.22;22.40;;;;;;;8.06;96.78;100302.19;5032364;28;20053;-78
2021/12/24 09:27:50;;;;;;;47.08;22.05;;;;;;;8.06;95.90;100294.09;5034323;28;20029;-76
2021/12/24 09:30:15;;;;;;;45.80;22.17;;;;;;;8.05;96.57;100293.28;5032556;28;20083;-76
2021/12/24 09:32:41;;;;;;;45.53;22.42;;;;;;;8.07;96.14;100304.66;5031737;28;20045;-80
2021/12/24 09:35:08;;;;;;;48.35;21.50;;;;;;;8.13;95.77;100303.78;5031254;28;20033;-79
2021/12/24 09:37:34;;;;;;;40.15;22.23;;;;;;;8.12;95.57;100302.13;5041683;28;20050;-76
2021/12/24 09:39:59;;;;;;;51.10;22.13;;;;;;;8.08;96.57;100305.50;5043602;28;20040;-76
2021/12/24 09:42:25;;;;;;;47.42;20.60;;;;;;;8.09;96.18;100315.22;5038712;28;20041;-82
2021/12/24 09:44:50;;;;;;;42.80;20.60;;;;;;;8.08;96.41;100302.81;5033794;28;20060;-76
2021/12/24 09:47:16;;;;;;;41.00;19.08;;;;;;;8.07;96.30;100304.66;5038767;28;20037;-73
2021/12/24 09:49:41;;;;;;;40.72;19.33;;;;;;;8.15;95.50;100306.25;5031463;28;20421;-74
2021/12/24 09:52:07;;;;;;;42.03;19.80;;;;;;;8.15;95.67;100301.69;5035831;28;20536;-75
2021/12/24 09:54:32;;;;;;;38.70;18.33;;;;;;;8.12;95.49;100301.28;5035706;28;20051;-74
2021/12/24 09:56:58;;;;;;;47.15;20.40;;;;;;;8.12;95.57;100301.28;5018610;28;20033;-74
2021/12/24 09:59:25;;;;;;;45.90;21.88;;;;;;;8.13;95.56;100302.94;5016215;28;20034;-75
2021/12/24 10:01:54;;;;;;;48.55;21.85;;;;;;;8.10;95.77;100301.53;5013841;28;20061;-74
2021/12/24 10:04:22;;;;;;;44.03;21.92;;;;;;;8.15;95.76;100298.16;5016264;28;20104;-74
2021/12/24 10:06:59;;;;;;;48.90;22.58;;;;;;;8.19;96.13;100298.56;5016110;28;20036;-74
2021/12/24 10:09:46;;;;;;;45.03;23.02;;;;;;;8.14;95.83;100299.22;5015046;28;20037;-74
2021/12/24 10:12:15;;;;;;;50.88;24.42;;;;;;;8.18;95.19;100300.41;5016323;28;20069;-74
2021/12/24 10:14:46;;;;;;;51.67;24.48;;;;;;;8.16;95.14;100303.31;5016000;28;20474;-72
2021/12/24 10:17:16;;;;;;;50.15;25.88;;;;;;;8.19;95.72;100301.25;5029091;28;20461;-73
2021/12/24 10:19:53;;;;;;;54.20;27.98;;;;;;;8.18;95.70;100294.19;5034213;28;20400;-72
2021/12/24 10:22:20;;;;;;;52.13;25.90;;;;;;;8.19;95.49;100304.75;5035785;28;20390;-75
2021/12/24 10:25:05;;;;;;;53.60;26.65;;;;;;;8.19;95.96;100302.06;5035345;28;20033;-75
2021/12/24 10:27:32;;;;;;;50.33;25.25;;;;;;;8.19;95.72;100295.84;5034403;28;20634;-76
2021/12/24 10:29:59;;;;;;;45.10;25.08;;;;;;;8.20;95.90;100301.03;5031766;28;20108;-75
2021/12/24 10:32:24;;;;;;;47.63;24.55;;;;;;;8.20;96.11;100294.78;5034917;28;20033;-76
2021/12/24 10:34:50;;;;;;;53.63;24.70;;;;;;;8.17;96.22;100293.38;5033240;28;20437;-75
2021/12/24 10:37:18;;;;;;;50.70;24.00;;;;;;;8.21;95.60;100278.41;5032759;28;20037;-74
2021/12/24 10:40:04;;;;;;;45.72;23.30;;;;;;;8.30;95.17;100293.25;5033409;28;20032;-76
2021/12/24 10:42:32;;;;;;;53.28;23.33;;;;;;;8.27;95.38;100288.31;5030365;28;20042;-74
2021/12/24 10:44:59;;;;;;;46.20;24.30;;;;;;;8.25;95.23;100285.00;5035385;28;20439;-74
2021/12/24 10:47:30;;;;;;;47.88;24.52;;;;;;;8.28;96.17;100284.53;5033747;28;20041;-75
2021/12/24 10:50:10;;;;;;;48.92;27.00;;;;;;;8.27;95.28;100288.31;5033713;28;20511;-73
2021/12/24 10:53:16;;;;;;;52.92;28.13;;;;;;;8.37;95.89;100281.56;5034970;28;20112;-75
2021/12/24 10:55:43;;;;;;;53.53;29.33;;;;;;;8.33;95.92;100276.63;5032742;28;20087;-76
2021/12/24 10:58:17;;;;;;;55.97;30.17;;;;;;;8.38;95.29;100277.81;5034292;28;20112;-76
2021/12/24 11:00:52;;;;;;;57.80;31.85;;;;;;;8.39;95.47;100269.50;5032772;28;20033;-76
2021/12/24 11:03:31;;;;;;;66.38;35.60;;;;;;;8.43;95.01;100272.59;5033810;28;20487;-80
2021/12/24 11:06:07;;;;;;;68.80;38.00;;;;;;;8.47;95.05;100273.78;5034306;28;20179;-80
2021/12/24 11:08:33;;;;;;;65.43;35.15;;;;;;;8.42;95.40;100271.75;5035278;28;20112;-74
2021/12/24 11:11:03;;;;;;;66.10;36.92;;;;;;;8.46;95.57;100266.78;5033600;28;20029;-76
2021/12/24 11:13:41;;;;;;;70.75;37.33;;;;;;;8.51;95.24;100272.28;5034639;28;20381;-78
2021/12/24 11:16:09;;;;;;;62.58;37.15;;;;;;;8.45;94.99;100265.09;5031399;28;20045;-77
2021/12/24 11:18:40;;;;;;;63.00;37.42;;;;;;;8.51;94.81;100275.00;5031196;28;20029;-77
2021/12/24 11:21:08;;;;;;;74.63;37.85;;;;;;;8.50;94.07;100259.88;5029413;28;20026;-77
2021/12/24 11:23:36;;;;;;;71.55;33.90;;;;;;;8.48;95.71;100270.06;5024876;28;20045;-77
2021/12/24 11:26:14;;;;;;;67.82;39.50;;;;;;;8.54;94.55;100271.03;5025003;28;20038;-77
2021/12/24 11:28:40;;;;;;;65.07;38.72;;;;;;;8.52;94.51;100271.25;5013589;28;20461;-76
2021/12/24 11:31:12;;;;;;;69.65;40.08;;;;;;;8.52;94.55;100271.25;5017942;28;20033;-76
2021/12/24 11:33:40;;;;;;;66.47;40.38;;;;;;;8.53;95.11;100275.63;5034352;28;20103;-77
2021/12/24 11:36:08;;;;;;;65.75;39.33;;;;;;;8.51;94.29;100272.28;5022586;28;20030;-74
2021/12/24 11:38:38;;;;;;;76.82;40.78;;;;;;;8.52;94.99;100273.97;5026056;28;20045;-79
2021/12/24 11:41:06;;;;;;;69.63;39.20;;;;;;;8.49;94.67;100274.41;5034524;28;20059;-74
2021/12/24 11:43:35;;;;;;;79.45;40.95;;;;;;;8.54;94.68;100282.63;5030043;28;20388;-77
2021/12/24 11:46:05;;;;;;;68.70;38.97;;;;;;;8.52;95.22;100282.84;5034097;28;20022;-79
2021/12/24 11:48:33;;;;;;;69.38;38.33;;;;;;;8.52;94.75;100282.84;5027727;28;20451;-75
2021/12/24 11:51:09;;;;;;;61.53;37.35;;;;;;;8.54;94.76;100282.63;5022191;28;20376;-79
2021/12/24 11:53:36;;;;;;;69.28;38.45;;;;;;;8.49;94.80;100280.63;5031798;28;20033;-78
2021/12/24 11:56:10;;;;;;;64.72;35.63;;;;;;;8.50;94.71;100276.06;5034033;28;20045;-77
2021/12/24 11:58:53;;;;;;;59.47;36.05;;;;;;;8.56;94.82;100275.16;5020400;28;20037;-78
2021/12/24 12:01:22;;;;;;;67.75;37.65;;;;;;;8.49;94.74;100271.72;5010952;28;20032;-77
2021/12/24 12:03:51;;;;;;;64.88;36.63;;;;;;;8.50;94.65;100276.06;5013016;28;20021;-78
2021/12/24 12:06:16;;;;;;;62.85;35.80;;;;;;;8.52;94.91;100268.56;5014192;28;20053;-79
2021/12/24 12:08:45;;;;;;;64.75;36.10;;;;;;;8.50;94.76;100265.28;5012676;28;20025;-77
2021/12/24 12:11:14;;;;;;;58.53;35.15;;;;;;;8.50;95.75;100266.09;5028129;28;20037;-76
2021/12/24 12:13:50;;;;;;;71.70;36.45;;;;;;;8.52;95.72;100269.38;5032931;28;20065;-75
2021/12/24 12:16:22;;;;;;;62.30;34.97;;;;;;;8.54;95.17;100266.44;5032145;28;20035;-75
2021/12/24 12:19:08;;;;;;;60.70;34.95;;;;;;;8.56;95.08;100258.97;5028718;28;20033;-76
2021/12/24 12:21:40;;;;;;;62.65;32.22;;;;;;;8.63;94.55;100259.69;5032819;28;20400;-77
2021/12/24 12:26:41;;;;;;;65.38;32.45;;;;;;;8.58;94.55;100262.25;5028033;28;19913;-78
2021/12/24 12:29:29;;;;;;;59.95;32.75;;;;;;;8.62;94.45;100255.38;5108513;27;1275003;-76
2021/12/24 12:31:56;;;;;;;;;;;;;;;8.66;94.35;100264.63;5129464;28;20499;-77
2021/12/24 12:34:37;;;;;;;57.78;31.92;;;;;;;8.61;95.08;100259.09;5134422;27;20006;-80
2021/12/24 12:37:15;;;;;;;59.42;32.03;;;;;;;8.58;94.99;100251.47;5150960;27;20091;-78